Time;durP1;ratioP1;P1;durP2;ratioP2;P2;SDS_P1;SDS_P2;PMS_P1;PMS_P2;Temp;Humidity;BMP_temperature;BMP_pressure;BME280_temperature;BME280_humidity;BME280_pressure;Samples;Min_cycle;Max_cycle;Signal;HPM_P1;HPM_P2
2023/02/25 00:02:25;;;;;;;7.22;2.80;;;7.30;99.90;;;;;;20832582;28;20504;-78
2023/02/25 00:12:28;;;;;;;11.10;2.60;;;7.30;99.90;;;;;;20841904;28;20038;-76
2023/02/25 00:22:28;;;;;;;8.43;3.40;;;7.30;99.90;;;;;;20843807;28;20121;-79
2023/02/25 00:32:29;;;;;;;8.40;3.23;;;6.90;99.90;;;;;;20822459;28;20056;-78
2023/02/25 00:42:30;;;;;;;;;;;7.00;99.90;;;;;;20822149;28;20038;-78
2023/02/25 00:52:32;;;;;;;22.07;6.57;;;6.50;99.90;;;;;;20884110;28;19935;-78
2023/02/25 01:02:33;;;;;;;22.58;7.03;;;6.00;99.90;;;;;;20886097;28;20043;-79
2023/02/25 01:12:34;;;;;;;;;;;6.10;99.90;;;;;;20920621;28;20064;-78
2023/02/25 01:22:35;;;;;;;12.63;5.70;;;5.90;99.90;;;;;;20854522;28;20011;-78
2023/02/25 01:32:35;;;;;;;17.63;5.93;;;5.80;99.90;;;;;;20836180;28;20083;-79
2023/02/25 01:42:37;;;;;;;20.45;5.97;;;5.70;99.90;;;;;;20818081;28;20056;-78
2023/02/25 01:52:39;;;;;;;;;;;5.70;99.90;;;;;;20835837;28;20365;-79
2023/02/25 02:02:46;;;;;;;19.17;7.32;;;5.60;99.90;;;;;;20836274;28;19919;-80
2023/02/25 02:12:47;;;;;;;24.02;7.90;;;5.40;99.90;;;;;;20845576;28;20049;-78
2023/02/25 02:23:02;;;;;;;23.45;7.30;;;5.30;99.90;;;;;;20919312;28;20029;-79
2023/02/25 02:33:08;;;;;;;20.70;7.40;;;5.20;99.90;;;;;;20905254;28;20036;-80
2023/02/25 02:43:36;;;;;;;23.77;7.88;;;5.40;99.90;;;;;;20923204;28;20025;-79
2023/02/25 02:53:43;;;;;;;22.52;8.30;;;5.60;99.90;;;;;;20833027;28;20041;-79
2023/02/25 03:03:58;;;;;;;22.15;8.23;;;5.50;99.90;;;;;;20820624;28;20033;-80
2023/02/25 03:13:59;;;;;;;24.50;9.30;;;5.50;99.90;;;;;;20819834;28;20060;-80
2023/02/25 03:24:01;;;;;;;;;;;5.50;99.90;;;;;;20866745;28;20388;-80
2023/02/25 03:34:12;;;;;;;28.15;9.95;;;5.30;99.90;;;;;;20899111;28;20299;-79
2023/02/25 03:44:19;;;;;;;26.38;9.30;;;5.20;99.90;;;;;;20915824;28;20040;-79
2023/02/25 03:54:20;;;;;;;27.67;9.93;;;5.30;99.90;;;;;;20879643;28;20033;-80
2023/02/25 04:04:23;;;;;;;25.50;8.95;;;5.30;99.90;;;;;;20896101;28;20036;-79
2023/02/25 04:14:24;;;;;;;24.65;10.07;;;5.30;99.90;;;;;;20914690;28;20739;-80
2023/02/25 04:24:25;;;;;;;;;;;5.30;99.90;;;;;;20896698;28;20123;-80
2023/02/25 04:34:26;;;;;;;28.67;9.80;;;5.40;99.90;;;;;;20914559;28;19912;-79
2023/02/25 04:44:27;;;;;;;;;;;5.20;99.90;;;;;;20855589;28;20033;-80
2023/02/25 04:54:28;;;;;;;21.43;9.83;;;5.10;99.90;;;;;;20883418;28;20368;-79
2023/02/25 05:04:28;;;;;;;;;;;5.10;99.90;;;;;;20832637;28;20030;-79
2023/02/25 05:14:29;;;;;;;15.75;6.47;;;5.10;99.90;;;;;;20784899;28;19913;-77
2023/02/25 05:24:30;;;;;;;13.20;6.43;;;4.90;99.90;;;;;;20847694;28;20025;-78
2023/02/25 05:34:30;;;;;;;;;;;5.00;99.90;;;;;;20852080;28;20036;-78
2023/02/25 05:44:32;;;;;;;14.03;5.83;;;5.00;99.90;;;;;;20903508;28;19916;-78
2023/02/25 05:54:33;;;;;;;;;;;5.10;99.90;;;;;;20924991;28;20121;-79
2023/02/25 06:04:34;;;;;;;11.63;5.90;;;4.80;99.90;;;;;;20857659;28;19913;-79
2023/02/25 06:14:34;;;;;;;17.92;6.40;;;4.80;99.90;;;;;;20885284;28;20060;-78
2023/02/25 06:24:35;;;;;;;16.08;6.80;;;4.80;99.90;;;;;;20898403;28;20556;-79
2023/02/25 06:34:36;;;;;;;;;;;4.80;99.90;;;;;;20923047;28;20033;-78
2023/02/25 06:44:37;;;;;;;20.40;7.28;;;4.80;99.90;;;;;;20931760;28;19908;-79
2023/02/25 06:54:38;;;;;;;;;;;4.90;99.90;;;;;;20878513;28;20079;-79
2023/02/25 07:04:39;;;;;;;18.50;7.53;;;5.00;99.90;;;;;;20928516;28;20008;-78
2023/02/25 07:14:40;;;;;;;19.23;7.55;;;5.10;99.90;;;;;;20910360;28;20033;-79
2023/02/25 07:24:40;;;;;;;;;;;5.10;99.90;;;;;;20892026;28;20374;-79
2023/02/25 07:34:42;;;;;;;16.00;6.45;;;5.10;99.90;;;;;;20880441;28;19923;-78
2023/02/25 07:44:43;;;;;;;15.38;5.55;;;5.10;99.90;;;;;;20878984;28;20032;-78
2023/02/25 07:54:43;;;;;;;;;;;5.20;99.90;;;;;;20843765;28;20025;-79
2023/02/25 08:04:44;;;;;;;16.52;6.68;;;5.20;99.90;;;;;;20841821;28;19913;-79
2023/02/25 08:14:45;;;;;;;13.35;5.65;;;5.00;99.90;;;;;;20856912;28;20021;-80
2023/02/25 08:24:46;;;;;;;;;;;5.10;99.90;;;;;;20886998;28;20052;-79
2023/02/25 08:34:50;;;;;;;18.03;5.63;;;5.20;99.90;;;;;;20901726;28;19980;-79
2023/02/25 08:44:50;;;;;;;12.50;5.22;;;5.30;99.90;;;;;;20854501;28;20290;-79
2023/02/25 08:54:51;;;;;;;;;;;5.40;99.90;;;;;;20916401;28;20029;-79
2023/02/25 09:04:52;;;;;;;10.23;5.13;;;5.50;99.90;;;;;;20931887;28;19966;-79
2023/02/25 09:14:54;;;;;;;10.80;5.45;;;5.40;99.90;;;;;;20931386;28;20045;-79
2023/02/25 09:24:55;;;;;;;;;;;5.60;99.90;;;;;;20931485;28;20033;-79
2023/02/25 09:34:56;;;;;;;11.55;5.55;;;5.50;99.90;;;;;;20931259;28;19959;-78
2023/02/25 09:44:59;;;;;;;;;;;5.80;99.90;;;;;;20885202;28;20025;-78
2023/02/25 09:55:29;;;;;;;9.63;5.05;;;5.80;99.90;;;;;;20909888;28;19913;-78
2023/02/25 10:05:47;;;;;;;12.10;5.00;;;6.00;99.90;;;;;;20908485;28;20068;-78
2023/02/25 10:16:09;;;;;;;13.50;6.32;;;6.10;99.90;;;;;;20926568;28;20450;-78
2023/02/25 10:26:23;;;;;;;7.53;3.97;;;6.10;99.90;;;;;;20907311;28;20025;-78
2023/02/25 10:36:35;;;;;;;11.45;5.07;;;6.10;99.90;;;;;;20907007;28;20063;-79
2023/02/25 10:47:03;;;;;;;11.43;3.88;;;6.00;99.90;;;;;;20874070;28;20044;-79
2023/02/25 10:57:12;;;;;;;10.27;3.78;;;5.90;99.90;;;;;;20852468;28;20569;-79
2023/02/25 11:07:34;;;;;;;10.73;3.70;;;6.00;99.90;;;;;;20923060;28;20131;-78
2023/02/25 11:17:35;;;;;;;18.67;4.65;;;6.30;99.90;;;;;;20803731;28;20492;-78
2023/02/25 11:27:37;;;;;;;;;;;6.30;99.90;;;;;;20754971;28;20068;-78
2023/02/25 11:37:42;;;;;;;17.50;6.77;;;6.10;99.90;;;;;;20753742;28;20063;-78
2023/02/25 11:47:44;;;;;;;8.40;3.42;;;6.00;99.90;;;;;;20778874;28;20033;-77
2023/02/25 11:58:14;;;;;;;13.93;4.22;;;6.10;99.90;;;;;;20916807;28;20044;-78
2023/02/25 12:08:31;;;;;;;3.97;2.05;;;6.00;99.90;;;;;;20879737;28;20049;-79
2023/02/25 12:19:09;;;;;;;3.17;1.98;;;6.10;99.90;;;;;;20902270;28;20547;-81
2023/02/25 12:29:32;;;;;;;7.93;2.30;;;6.40;99.90;;;;;;20799503;28;20120;-79
2023/02/25 12:39:55;;;;;;;5.18;2.15;;;6.40;99.90;;;;;;20729282;28;20523;-80
2023/02/25 12:50:06;;;;;;;6.53;3.05;;;6.40;99.90;;;;;;20833936;28;20033;-80
2023/02/25 13:00:22;;;;;;;5.60;1.13;;;6.80;99.90;;;;;;20783647;28;20149;-79
2023/02/25 13:10:58;;;;;;;3.45;1.08;;;6.60;99.90;;;;;;20756546;28;20060;-78
2023/02/25 13:21:22;;;;;;;5.32;1.83;;;6.90;99.90;;;;;;20826353;28;20548;-80
2023/02/25 13:31:48;;;;;;;2.92;1.15;;;6.80;99.90;;;;;;20830886;28;20030;-78
2023/02/25 13:42:11;;;;;;;7.03;1.77;;;6.40;99.90;;;;;;20839142;28;20025;-77
2023/02/25 13:52:18;;;;;;;2.13;1.02;;;6.70;99.90;;;;;;20825393;28;20113;-79
2023/02/25 14:02:30;;;;;;;2.50;1.38;;;6.60;99.90;;;;;;20815366;28;20030;-79
2023/02/25 14:12:52;;;;;;;5.20;1.50;;;7.20;99.90;;;;;;20836673;28;20060;-79
2023/02/25 14:22:53;;;;;;;;;;;8.10;99.90;;;;;;20836004;28;20025;-80
2023/02/25 14:33:12;;;;;;;3.80;1.23;;;8.00;99.90;;;;;;20833881;28;19913;-79
2023/02/25 14:43:32;;;;;;;3.50;0.90;;;7.00;99.90;;;;;;20834155;28;20033;-79
2023/02/25 14:53:46;;;;;;;4.68;1.67;;;7.00;99.90;;;;;;20833415;28;20025;-79
2023/02/25 15:03:53;;;;;;;5.65;1.73;;;6.60;99.90;;;;;;20833722;28;20036;-80
2023/02/25 15:14:14;;;;;;;2.92;1.30;;;7.00;99.90;;;;;;20833802;28;20034;-79
2023/02/25 15:24:40;;;;;;;2.95;1.00;;;6.70;99.90;;;;;;20830275;28;20029;-81
2023/02/25 15:34:55;;;;;;;4.18;1.23;;;6.60;99.90;;;;;;20835284;28;20034;-79
2023/02/25 15:45:27;;;;;;;4.75;1.17;;;7.10;99.90;;;;;;20831606;28;20064;-77
2023/02/25 15:56:04;;;;;;;2.08;1.20;;;6.30;99.90;;;;;;20814307;28;20030;-77
2023/02/25 16:06:27;;;;;;;3.38;1.55;;;6.20;99.90;;;;;;20767636;28;20104;-77
2023/02/25 16:16:30;;;;;;;5.95;1.52;;;5.60;99.90;;;;;;20817594;28;20557;-79
2023/02/25 16:27:02;;;;;;;3.35;1.55;;;5.30;99.90;;;;;;20857337;28;20037;-78
2023/02/25 16:37:11;;;;;;;4.00;1.10;;;4.80;99.90;;;;;;20860565;28;20044;-79
2023/02/25 16:47:29;;;;;;;4.57;1.40;;;4.50;99.90;;;;;;20838343;28;20038;-80
2023/02/25 16:57:32;;;;;;;4.15;1.17;;;4.20;99.90;;;;;;20786408;28;20038;-80
2023/02/25 17:07:34;;;;;;;6.20;1.25;;;4.00;99.90;;;;;;20820842;28;20038;-79
2023/02/25 17:17:38;;;;;;;3.33;1.10;;;3.80;99.90;;;;;;20812796;28;20124;-78
2023/02/25 17:27:40;;;;;;;1.17;0.90;;;3.70;99.90;;;;;;20843271;28;20026;-79
2023/02/25 17:37:41;;;;;;;2.17;1.10;;;3.40;99.90;;;;;;20832117;28;20034;-79
2023/02/25 17:47:43;;;;;;;8.55;1.35;;;3.20;99.90;;;;;;20829844;28;20112;-78
2023/02/25 17:57:43;;;;;;;4.93;1.85;;;2.60;99.90;;;;;;20845529;28;20030;-80
2023/02/25 18:07:56;;;;;;;7.68;1.73;;;2.10;99.90;;;;;;20837528;28;20037;-79
2023/02/25 18:18:02;;;;;;;8.35;2.42;;;2.10;99.90;;;;;;20847596;28;20174;-79
2023/02/25 18:28:06;;;;;;;21.35;10.73;;;1.90;99.90;;;;;;20895690;28;20091;-79
2023/02/25 18:38:14;;;;;;;13.73;9.68;;;1.80;99.90;;;;;;20866918;28;20033;-79
2023/02/25 18:48:15;;;;;;;57.22;14.60;;;1.80;99.90;;;;;;20817637;28;20028;-78
2023/02/25 18:58:17;;;;;;;53.35;19.00;;;1.20;99.90;;;;;;20890734;28;20079;-78
2023/02/25 19:08:18;;;;;;;9.93;3.38;;;1.00;99.90;;;;;;20925457;28;20025;-78
2023/02/25 19:18:19;;;;;;;29.20;13.45;;;1.20;99.90;;;;;;20849301;28;20037;-78
2023/02/25 19:28:19;;;;;;;18.98;9.13;;;1.00;99.90;;;;;;20861765;28;20025;-78
2023/02/25 19:38:20;;;;;;;30.88;7.40;;;1.00;99.90;;;;;;20874982;28;20052;-78
2023/02/25 19:48:21;;;;;;;12.80;5.72;;;1.00;99.90;;;;;;20929255;28;20022;-78
2023/02/25 19:58:22;;;;;;;8.20;4.78;;;0.40;99.90;;;;;;20890096;28;20029;-78
2023/02/25 20:08:23;;;;;;;11.20;4.93;;;0.30;99.90;;;;;;20921943;28;20022;-77
2023/02/25 20:18:23;;;;;;;14.20;3.90;;;0.10;99.90;;;;;;20894143;28;20025;-77
2023/02/25 20:28:24;;;;;;;5.28;2.65;;;-0.10;99.90;;;;;;20916610;28;20033;-78
2023/02/25 20:38:37;;;;;;;8.05;3.10;;;-0.30;99.90;;;;;;20909497;28;20036;-77
2023/02/25 20:48:37;;;;;;;10.40;4.28;;;-0.40;99.90;;;;;;20895688;28;20029;-78
2023/02/25 20:58:39;;;;;;;9.68;3.85;;;-0.20;99.90;;;;;;20881281;28;20025;-78
2023/02/25 21:08:40;;;;;;;8.45;3.05;;;-0.10;99.90;;;;;;20838154;28;20033;-78
2023/02/25 21:18:45;;;;;;;7.97;3.72;;;0.00;99.90;;;;;;20851851;28;20176;-78
2023/02/25 21:28:46;;;;;;;9.00;3.05;;;0.00;99.90;;;;;;20845031;28;20109;-78
2023/02/25 21:38:47;;;;;;;10.15;4.07;;;0.10;99.90;;;;;;20866927;28;20428;-78
2023/02/25 21:48:49;;;;;;;6.63;3.80;;;0.30;99.90;;;;;;20811715;28;20539;-78
2023/02/25 21:58:58;;;;;;;8.88;3.47;;;0.30;99.90;;;;;;20821888;28;20038;-77
2023/02/25 22:08:59;;;;;;;7.82;3.83;;;0.50;99.90;;;;;;20787098;28;20373;-78
2023/02/25 22:19:00;;;;;;;8.35;3.50;;;0.60;99.90;;;;;;20771176;28;20554;-78
2023/02/25 22:29:06;;;;;;;8.40;3.78;;;0.80;99.90;;;;;;20800796;28;20025;-78
2023/02/25 22:39:08;;;;;;;7.97;3.72;;;1.10;99.90;;;;;;20818545;28;20037;-78
2023/02/25 22:49:10;;;;;;;13.85;3.00;;;1.30;99.90;;;;;;20866957;28;20091;-78
2023/02/25 22:59:11;;;;;;;6.97;2.75;;;1.60;99.90;;;;;;20874380;28;20049;-78
2023/02/25 23:09:13;;;;;;;5.28;2.80;;;1.80;99.90;;;;;;20833391;28;20116;-78
2023/02/25 23:19:16;;;;;;;5.85;2.85;;;1.90;99.90;;;;;;20874564;28;20072;-78
2023/02/25 23:29:17;;;;;;;5.90;1.95;;;1.80;99.90;;;;;;20868009;28;20038;-78
2023/02/25 23:39:18;;;;;;;5.10;2.20;;;1.80;99.90;;;;;;20787774;28;20122;-78
2023/02/25 23:49:18;;;;;;;3.47;1.95;;;1.80;99.90;;;;;;20865223;28;20030;-78
2023/02/25 23:59:21;;;;;;;4.50;1.95;;;1.50;99.90;;;;;;20839499;28;1144313;-78
